Time;durP1;ratioP1;P1;durP2;ratioP2;P2;SDS_P1;SDS_P2;PMS_P1;PMS_P2;Temp;Humidity;BMP_temperature;BMP_pressure;BME280_temperature;BME280_humidity;BME280_pressure;Samples;Min_cycle;Max_cycle;Signal;HPM_P1;HPM_P2
2022/12/03 00:00:21;;;;;;;1.48;0.65;;;;;;;8.06;54.30;100910.97;5007343;28;20065;-75
2022/12/03 00:02:49;;;;;;;0.77;0.40;;;;;;;8.07;59.73;100895.59;5004769;28;20050;-76
2022/12/03 00:05:18;;;;;;;0.40;0.30;;;;;;;8.04;56.57;100892.88;5010037;28;20408;-77
2022/12/03 00:07:47;;;;;;;0.77;0.43;;;;;;;8.03;59.87;100896.25;5009505;28;20038;-74
2022/12/03 00:10:16;;;;;;;1.13;0.65;;;;;;;7.99;56.77;100891.78;5010068;28;20085;-73
2022/12/03 00:12:46;;;;;;;1.23;0.52;;;;;;;7.99;60.41;100896.94;5005972;28;20046;-72
2022/12/03 00:15:15;;;;;;;1.58;0.55;;;;;;;7.94;54.25;100890.72;5010528;28;20054;-75
2022/12/03 00:17:43;;;;;;;3.00;0.60;;;;;;;7.95;60.06;100888.22;5007518;28;20190;-72
2022/12/03 00:20:19;;;;;;;1.17;0.57;;;;;;;7.92;54.75;100884.63;5009309;28;20056;-73
2022/12/03 00:22:48;;;;;;;1.17;0.40;;;;;;;7.93;54.13;100895.00;5006201;28;20046;-76
2022/12/03 00:25:17;;;;;;;0.68;0.52;;;;;;;7.96;64.18;100894.25;5010358;28;20050;-75
2022/12/03 00:27:47;;;;;;;1.27;0.50;;;;;;;7.89;56.51;100881.94;5005904;28;20038;-73
2022/12/03 00:30:16;;;;;;;0.88;0.47;;;;;;;7.90;57.44;100892.31;5010327;28;20470;-73
2022/12/03 00:32:45;;;;;;;2.67;0.63;;;;;;;7.93;57.13;100888.97;5006984;28;20050;-74
2022/12/03 00:35:13;;;;;;;0.85;0.50;;;;;;;7.93;59.17;100887.28;5005368;28;20495;-74
2022/12/03 00:37:42;;;;;;;1.85;0.55;;;;;;;7.92;61.70;100882.91;5003286;28;20042;-73
2022/12/03 00:40:13;;;;;;;1.20;0.47;;;;;;;7.91;63.09;100877.72;5009977;28;20507;-73
2022/12/03 00:42:41;;;;;;;6.03;0.52;;;;;;;7.87;61.46;100873.25;5005062;28;20069;-73
2022/12/03 00:45:12;;;;;;;1.63;0.65;;;;;;;7.89;64.80;100874.19;5001135;28;20050;-72
2022/12/03 00:47:41;;;;;;;0.93;0.57;;;;;;;7.88;68.95;100860.44;5010382;28;20075;-73
2022/12/03 00:50:10;;;;;;;0.52;0.43;;;;;;;7.86;67.77;100861.19;5010076;28;20503;-73
2022/12/03 00:52:45;;;;;;;0.75;0.50;;;;;;;7.85;67.46;100854.25;5017801;28;20049;-73
2022/12/03 00:55:14;;;;;;;2.40;0.80;;;;;;;7.84;66.75;100855.97;5024824;28;20140;-72
2022/12/03 00:57:42;;;;;;;0.55;0.38;;;;;;;7.86;66.29;100848.31;5027737;28;20479;-73
2022/12/03 01:00:14;;;;;;;3.22;0.60;;;;;;;7.86;65.81;100850.91;5031221;28;20041;-72
2022/12/03 01:02:43;;;;;;;0.77;0.40;;;;;;;7.87;66.19;100842.34;5027548;28;20108;-72
2022/12/03 01:05:12;;;;;;;1.25;0.70;;;;;;;7.87;65.39;100842.34;5015659;28;20053;-73
2022/12/03 01:07:40;;;;;;;2.10;0.98;;;;;;;7.87;66.75;100839.75;5026203;28;20043;-74
2022/12/03 01:10:10;;;;;;;0.98;0.68;;;;;;;7.88;65.85;100838.94;5025040;28;20045;-75
2022/12/03 01:12:38;;;;;;;1.30;0.75;;;;;;;7.89;64.15;100840.69;5028143;28;20041;-76
2022/12/03 01:15:08;;;;;;;0.85;0.50;;;;;;;7.90;63.17;100834.72;5020960;28;20265;-76
2022/12/03 01:17:39;;;;;;;1.55;0.75;;;;;;;7.90;62.11;100832.16;5022863;28;20038;-74
2022/12/03 01:20:10;;;;;;;2.17;0.93;;;;;;;7.91;63.82;100828.78;5031022;28;20057;-75
2022/12/03 01:22:38;;;;;;;4.03;1.80;;;;;;;7.92;61.56;100835.66;5032869;28;20101;-74
2022/12/03 01:25:08;;;;;;;1.95;1.00;;;;;;;7.92;63.98;100838.25;5029662;28;20051;-74
2022/12/03 01:27:36;;;;;;;1.67;1.00;;;;;;;7.93;64.54;100830.59;5028666;28;20056;-74
2022/12/03 01:30:06;;;;;;;1.58;1.10;;;;;;;7.93;62.22;100835.75;5029632;28;20053;-74
2022/12/03 01:32:34;;;;;;;1.30;0.85;;;;;;;7.94;61.63;100834.03;5034041;28;20041;-75
2022/12/03 01:35:04;;;;;;;1.33;1.00;;;;;;;7.95;62.03;100835.81;5018527;28;20500;-76
2022/12/03 01:37:33;;;;;;;2.05;1.10;;;;;;;7.95;59.98;100835.81;5027505;28;20045;-75
2022/12/03 01:40:02;;;;;;;2.63;1.25;;;;;;;7.94;60.74;100826.31;5025833;28;20157;-76
2022/12/03 01:42:35;;;;;;;1.80;1.30;;;;;;;7.97;62.48;100836.72;5026393;28;20051;-74
2022/12/03 01:45:03;;;;;;;;;;;;;;;7.98;60.44;100825.63;5034328;28;20107;-75
2022/12/03 01:47:35;;;;;;;3.83;1.35;;;;;;;7.97;62.32;100818.69;5026191;28;19960;-75
2022/12/03 01:50:09;;;;;;;1.02;0.80;;;;;;;7.96;61.58;100822.09;5032807;28;20138;-76
2022/12/03 01:52:40;;;;;;;2.53;0.80;;;;;;;7.97;59.26;100814.44;5028384;28;20141;-76
2022/12/03 01:55:14;;;;;;;1.05;0.55;;;;;;;7.97;58.67;100817.03;5021979;28;20228;-76
2022/12/03 01:57:46;;;;;;;3.13;0.68;;;;;;;7.97;58.79;100816.13;5018474;28;20705;-75
2022/12/03 02:00:17;;;;;;;2.28;0.63;;;;;;;7.97;59.65;100819.59;5027109;28;20415;-75
2022/12/03 02:02:47;;;;;;;0.77;0.35;;;;;;;7.95;59.90;100815.22;5023153;28;20061;-74
2022/12/03 02:05:20;;;;;;;0.68;0.50;;;;;;;7.94;61.08;100816.00;5031565;28;20049;-77
2022/12/03 02:07:48;;;;;;;;;;;;;;;7.94;60.25;100809.16;5027480;28;20078;-76
2022/12/03 02:10:19;;;;;;;1.50;0.40;;;;;;;7.91;62.72;100803.88;5029190;28;19921;-78
2022/12/03 02:12:53;;;;;;;0.82;0.52;;;;;;;7.87;59.15;100811.41;5027840;28;20061;-75
2022/12/03 02:15:22;;;;;;;1.10;0.60;;;;;;;7.84;60.75;100817.31;5030312;28;20049;-77
2022/12/03 02:17:51;;;;;;;1.02;0.65;;;;;;;7.84;58.75;100811.31;5026175;28;20038;-75
2022/12/03 02:20:21;;;;;;;5.03;0.65;;;;;;;7.84;60.18;100813.88;5029987;28;20495;-76
2022/12/03 02:22:57;;;;;;;0.85;0.50;;;;;;;7.85;58.47;100802.75;5023449;28;20132;-75
2022/12/03 02:25:30;;;;;;;1.08;0.63;;;;;;;7.87;58.68;100801.13;5031607;28;20107;-74
2022/12/03 02:28:00;;;;;;;0.90;0.50;;;;;;;7.86;59.80;100796.78;5025962;28;20132;-75
2022/12/03 02:30:31;;;;;;;2.08;0.57;;;;;;;7.87;60.18;100795.97;5020456;28;20065;-73
2022/12/03 02:33:01;;;;;;;1.27;0.73;;;;;;;7.85;57.39;100793.31;5022508;28;20065;-73
2022/12/03 02:35:33;;;;;;;1.25;0.55;;;;;;;7.86;56.91;100796.78;5025280;28;20081;-74
2022/12/03 02:38:08;;;;;;;0.98;0.63;;;;;;;7.87;57.18;100791.69;5028921;28;20140;-74
2022/12/03 02:40:40;;;;;;;0.95;0.57;;;;;;;7.87;58.48;100786.53;5027135;28;20052;-75
2022/12/03 02:43:08;;;;;;;0.65;0.47;;;;;;;7.90;58.76;100788.34;5032761;28;20053;-75
2022/12/03 02:45:40;;;;;;;1.20;0.47;;;;;;;7.91;58.47;100767.81;5021285;28;20046;-75
2022/12/03 02:48:12;;;;;;;2.93;0.50;;;;;;;7.92;60.07;100759.25;5030849;28;20076;-75
2022/12/03 02:50:42;;;;;;;3.35;0.75;;;;;;;7.88;55.01;100753.91;5018563;28;20133;-75
2022/12/03 02:53:15;;;;;;;0.60;0.43;;;;;;;7.86;57.53;100750.44;5026248;28;20081;-75
2022/12/03 02:55:46;;;;;;;0.60;0.50;;;;;;;7.86;59.00;100753.00;5022644;28;20048;-75
2022/12/03 02:58:15;;;;;;;1.05;0.73;;;;;;;7.88;59.52;100751.34;5025467;28;20053;-74
2022/12/03 03:00:45;;;;;;;1.08;0.63;;;;;;;7.86;59.18;100763.31;5028292;28;20076;-76
2022/12/03 03:03:14;;;;;;;0.38;0.38;;;;;;;7.89;57.72;100768.56;5027709;28;20049;-76
2022/12/03 03:05:43;;;;;;;0.98;0.57;;;;;;;7.89;56.37;100755.69;5028939;28;20053;-75
2022/12/03 03:08:12;;;;;;;0.70;0.50;;;;;;;7.90;57.27;100770.31;5026925;28;20045;-76
2022/12/03 03:10:43;;;;;;;0.77;0.40;;;;;;;7.90;58.59;100775.47;5025968;28;20045;-74
2022/12/03 03:13:15;;;;;;;1.52;0.63;;;;;;;7.88;59.76;100767.69;5027693;28;20045;-78
2022/12/03 03:15:44;;;;;;;1.30;0.50;;;;;;;7.89;60.13;100759.13;5022433;28;20064;-76
2022/12/03 03:18:15;;;;;;;1.00;0.68;;;;;;;7.90;59.75;100754.84;5025197;28;20050;-76
2022/12/03 03:20:45;;;;;;;6.93;0.70;;;;;;;7.88;58.91;100751.34;5028268;28;20050;-76
2022/12/03 03:23:16;;;;;;;1.92;0.77;;;;;;;7.88;60.19;100761.63;5030713;28;20049;-78
2022/12/03 03:25:49;;;;;;;1.10;0.77;;;;;;;7.87;59.59;100749.59;5022703;28;20046;-77
2022/12/03 03:28:19;;;;;;;1.52;0.60;;;;;;;7.84;58.80;100754.63;5026651;28;20049;-76
2022/12/03 03:30:48;;;;;;;1.33;0.50;;;;;;;7.84;59.67;100745.19;5032233;28;20081;-75
2022/12/03 03:33:17;;;;;;;3.20;0.50;;;;;;;7.85;60.07;100758.94;5026800;28;20073;-74
2022/12/03 03:35:48;;;;;;;3.35;1.00;;;;;;;7.86;59.56;100755.56;5028784;28;20068;-75
2022/12/03 03:38:19;;;;;;;1.77;0.85;;;;;;;7.85;59.56;100756.38;5027462;28;20099;-74
2022/12/03 03:40:50;;;;;;;2.33;0.98;;;;;;;7.85;58.89;100761.53;5031258;28;20081;-74
2022/12/03 03:43:21;;;;;;;2.28;0.70;;;;;;;7.84;59.64;100777.81;5028320;28;20049;-77
2022/12/03 03:45:51;;;;;;;1.40;0.95;;;;;;;7.84;59.56;100785.53;5029914;28;20057;-76
2022/12/03 03:48:20;;;;;;;1.85;0.95;;;;;;;7.80;59.57;100786.22;5020744;28;20049;-76
2022/12/03 03:50:50;;;;;;;2.60;1.00;;;;;;;7.78;58.47;100787.84;5030176;28;20099;-75
2022/12/03 03:53:20;;;;;;;2.90;0.98;;;;;;;7.76;60.48;100790.34;5027903;28;20145;-77
2022/12/03 03:55:49;;;;;;;1.88;1.08;;;;;;;7.75;58.02;100796.34;5029373;28;20498;-75
2022/12/03 03:58:19;;;;;;;2.00;1.00;;;;;;;7.73;57.47;100797.97;5024073;28;20052;-77
2022/12/03 04:00:48;;;;;;;3.30;1.20;;;;;;;7.73;60.41;100793.69;5026314;28;20056;-75
2022/12/03 04:03:17;;;;;;;1.58;0.98;;;;;;;7.72;58.94;100789.38;5028123;28;20059;-79
2022/12/03 04:05:46;;;;;;;1.67;1.05;;;;;;;7.71;57.20;100797.03;5028729;28;20080;-76
2022/12/03 04:08:15;;;;;;;1.52;0.93;;;;;;;7.69;51.36;100796.94;5026104;28;20609;-75
2022/12/03 04:13:30;;;;;;;3.33;1.65;;;;;;;7.75;53.61;100789.50;5030462;28;20052;-76
2022/12/03 04:15:59;;;;;;;2.88;1.25;;;;;;;7.81;57.37;100791.47;5021737;28;20077;-77
2022/12/03 04:18:46;;;;;;;4.47;1.20;;;;;;;7.76;59.02;100793.84;5026334;28;20050;-77
2022/12/03 04:24:02;;;;;;;2.47;0.68;;;;;;;7.74;54.34;100795.47;5027295;28;20146;-77
2022/12/03 04:29:19;;;;;;;1.45;0.50;;;;;;;7.75;50.98;100802.38;5024201;28;20573;-74
2022/12/03 04:37:18;;;;;;;0.73;0.20;;;;;;;7.81;51.41;100806.00;5025552;28;20060;-76
2022/12/03 04:39:47;;;;;;;0.82;0.35;;;;;;;7.87;52.40;100821.72;5031117;28;20128;-77
2022/12/03 04:42:16;;;;;;;0.32;0.32;;;;;;;7.87;53.51;100816.56;5025517;28;20105;-77
2022/12/03 04:44:46;;;;;;;1.00;0.50;;;;;;;7.88;53.93;100820.91;5028295;28;20050;-76
2022/12/03 04:47:16;;;;;;;1.05;0.43;;;;;;;7.82;54.06;100810.34;5029043;28;20060;-77
2022/12/03 04:49:47;;;;;;;1.17;0.47;;;;;;;7.85;53.63;100820.78;5024444;28;20120;-73
2022/12/03 04:52:18;;;;;;;1.80;0.50;;;;;;;7.81;54.07;100831.75;5024579;28;20045;-76
2022/12/03 04:54:47;;;;;;;0.45;0.30;;;;;;;7.83;56.18;100824.97;5028219;28;20049;-74
2022/12/03 04:57:16;;;;;;;0.63;0.35;;;;;;;7.83;57.05;100820.69;5034814;28;20132;-77
2022/12/03 04:59:46;;;;;;;0.52;0.40;;;;;;;7.81;54.82;100811.16;5038573;28;20052;-76
2022/12/03 05:02:15;;;;;;;1.02;0.60;;;;;;;7.87;59.70;100811.41;5033317;28;20064;-73
2022/12/03 05:04:44;;;;;;;0.82;0.30;;;;;;;7.87;60.61;100786.53;5028698;28;20503;-74
2022/12/03 05:07:12;;;;;;;0.85;0.47;;;;;;;7.92;62.69;100773.84;5021788;28;20042;-75
2022/12/03 05:09:41;;;;;;;0.95;0.65;;;;;;;7.93;62.03;100767.88;5032582;28;20319;-75
2022/12/03 05:12:10;;;;;;;1.40;0.55;;;;;;;7.93;62.55;100760.16;5033106;28;20050;-74
2022/12/03 05:14:38;;;;;;;1.35;0.52;;;;;;;7.93;58.61;100755.00;5033427;28;20057;-74
2022/12/03 05:17:09;;;;;;;0.63;0.40;;;;;;;7.95;59.38;100749.09;5032032;28;20515;-75
2022/12/03 05:22:22;;;;;;;0.70;0.43;;;;;;;8.00;59.64;100746.69;5024921;28;20181;-76
2022/12/03 05:24:51;;;;;;;1.05;0.63;;;;;;;8.03;61.64;100746.81;5030996;28;20566;-76
2022/12/03 05:27:20;;;;;;;1.00;0.60;;;;;;;8.02;59.65;100732.19;5027397;28;20050;-75
2022/12/03 05:29:49;;;;;;;1.52;0.77;;;;;;;8.03;59.45;100741.66;5028140;28;20091;-76
2022/12/03 05:32:19;;;;;;;2.33;0.70;;;;;;;8.02;60.05;100732.19;5033665;28;20049;-76
2022/12/03 05:34:48;;;;;;;3.45;0.40;;;;;;;8.04;59.14;100734.78;5032820;28;20093;-76
2022/12/03 05:37:17;;;;;;;0.75;0.30;;;;;;;8.05;59.35;100724.56;5030383;28;20243;-76
2022/12/03 05:39:45;;;;;;;1.10;0.35;;;;;;;8.08;59.88;100718.63;5021490;28;20079;-76
2022/12/03 05:44:59;;;;;;;0.98;0.50;;;;;;;8.07;58.99;100712.63;5032304;28;20096;-74
2022/12/03 05:47:30;;;;;;;0.70;0.40;;;;;;;8.08;60.23;100716.94;5026233;28;20080;-76
2022/12/03 05:49:58;;;;;;;1.63;0.50;;;;;;;8.08;60.24;100714.34;5033630;28;20216;-76
2022/12/03 05:52:27;;;;;;;0.88;0.55;;;;;;;8.10;60.65;100714.44;5032122;28;20049;-76
2022/12/03 05:54:56;;;;;;;0.85;0.70;;;;;;;8.10;59.68;100715.28;5025950;28;20068;-75
2022/12/03 05:57:24;;;;;;;0.57;0.50;;;;;;;8.11;59.70;100729.97;5022704;28;20069;-75
2022/12/03 05:59:53;;;;;;;0.65;0.52;;;;;;;8.10;58.12;100733.34;5028870;28;20075;-73
2022/12/03 06:02:22;;;;;;;0.47;0.30;;;;;;;8.10;57.88;100728.19;5029967;28;20046;-75
2022/12/03 06:04:52;;;;;;;1.02;0.50;;;;;;;8.15;59.42;100726.69;5030599;28;20135;-74
2022/12/03 06:07:21;;;;;;;0.57;0.55;;;;;;;8.15;58.79;100721.53;5031167;28;20041;-75
2022/12/03 06:09:50;;;;;;;1.40;0.70;;;;;;;8.12;57.40;100729.13;5031518;28;20045;-75
2022/12/03 06:12:18;;;;;;;1.33;0.70;;;;;;;8.10;59.01;100733.34;5032542;28;20041;-74
2022/12/03 06:14:47;;;;;;;0.60;0.57;;;;;;;8.10;58.73;100724.72;5032216;28;20072;-76
2022/12/03 06:17:16;;;;;;;0.98;0.60;;;;;;;8.09;58.97;100726.44;5028141;28;20043;-77
2022/12/03 06:19:44;;;;;;;1.35;0.80;;;;;;;8.06;58.17;100734.03;5027630;28;20152;-76
2022/12/03 06:22:15;;;;;;;1.63;0.68;;;;;;;8.01;58.90;100735.56;5026528;28;20049;-76
2022/12/03 06:24:43;;;;;;;1.35;0.43;;;;;;;7.96;60.46;100743.09;5029605;28;20048;-76
2022/12/03 06:27:12;;;;;;;2.72;0.70;;;;;;;7.93;59.48;100745.56;5027879;28;20186;-75
2022/12/03 06:29:41;;;;;;;1.20;0.70;;;;;;;7.84;60.23;100749.47;5023675;28;20041;-75
2022/12/03 06:32:10;;;;;;;1.15;0.70;;;;;;;7.79;60.54;100749.28;5026583;28;20045;-77
2022/12/03 06:34:38;;;;;;;1.08;0.50;;;;;;;7.75;60.85;100747.41;5025908;28;20120;-76
2022/12/03 06:37:07;;;;;;;0.93;0.57;;;;;;;7.69;62.72;100750.59;5032138;28;20185;-75
2022/12/03 06:39:38;;;;;;;2.40;0.55;;;;;;;7.66;63.61;100749.59;5031886;28;20045;-75
2022/12/03 06:42:06;;;;;;;0.55;0.55;;;;;;;7.63;62.89;100755.50;5034592;28;20049;-76
2022/12/03 06:44:35;;;;;;;0.85;0.60;;;;;;;7.58;64.51;100757.00;5033065;28;20037;-75
2022/12/03 06:47:04;;;;;;;1.35;0.60;;;;;;;7.55;64.68;100754.31;5028577;28;20046;-75
2022/12/03 06:49:32;;;;;;;1.27;0.68;;;;;;;7.54;64.88;100765.44;5028550;28;20045;-75
2022/12/03 06:52:01;;;;;;;2.28;0.80;;;;;;;7.53;64.24;100769.69;5024337;28;20518;-75
2022/12/03 06:54:30;;;;;;;1.88;0.82;;;;;;;7.54;63.79;100768.00;5032793;28;20057;-74
2022/12/03 06:57:00;;;;;;;0.88;0.60;;;;;;;7.55;64.05;100751.72;5019198;28;20055;-75
2022/12/03 06:59:32;;;;;;;2.00;0.50;;;;;;;7.58;64.48;100745.81;5031730;28;20095;-75
2022/12/03 07:02:01;;;;;;;0.57;0.50;;;;;;;7.57;65.25;100765.53;5030022;28;20041;-75
2022/12/03 07:04:30;;;;;;;1.80;0.60;;;;;;;7.58;61.82;100757.00;5027381;28;20046;-75
2022/12/03 07:06:59;;;;;;;3.22;0.93;;;;;;;7.57;61.84;100767.25;5024660;28;20061;-75
2022/12/03 07:09:27;;;;;;;1.83;0.70;;;;;;;7.56;62.23;100753.50;5020274;28;20507;-75
2022/12/03 07:11:56;;;;;;;1.95;0.77;;;;;;;7.54;63.18;100755.13;5017303;28;20611;-76
2022/12/03 07:14:26;;;;;;;0.95;0.70;;;;;;;7.53;61.93;100745.63;5032035;28;20053;-76
2022/12/03 07:16:55;;;;;;;2.65;0.88;;;;;;;7.48;61.88;100739.41;5024738;28;20049;-74
2022/12/03 07:19:24;;;;;;;1.20;0.85;;;;;;;7.47;60.10;100742.81;5030011;28;20382;-76
2022/12/03 07:21:53;;;;;;;5.20;0.82;;;;;;;7.46;60.22;100746.19;5030572;28;20064;-76
2022/12/03 07:24:21;;;;;;;2.15;0.80;;;;;;;7.47;59.85;100742.81;5027748;28;20049;-75
2022/12/03 07:26:50;;;;;;;3.15;0.90;;;;;;;7.46;60.85;100746.19;5018018;28;20057;-77
2022/12/03 07:29:19;;;;;;;1.83;0.70;;;;;;;7.41;60.65;100755.44;5022563;28;20049;-76
2022/12/03 07:31:49;;;;;;;2.88;1.00;;;;;;;7.33;60.47;100755.13;5025508;28;20513;-75
2022/12/03 07:34:18;;;;;;;1.73;0.98;;;;;;;7.33;61.59;100757.69;5028882;28;20053;-75
2022/12/03 07:36:46;;;;;;;1.38;0.82;;;;;;;7.33;61.81;100753.41;5020833;28;20068;-75
2022/12/03 07:39:15;;;;;;;1.85;0.80;;;;;;;7.32;61.06;100763.63;5023812;28;20140;-76
2022/12/03 07:41:44;;;;;;;2.35;0.70;;;;;;;7.28;61.21;100762.63;5025726;28;20132;-76
2022/12/03 07:44:13;;;;;;;3.55;1.08;;;;;;;7.25;61.91;100762.50;5028524;28;20049;-78
2022/12/03 07:46:42;;;;;;;1.60;0.90;;;;;;;7.24;61.93;100773.63;5022574;28;20045;-75
2022/12/03 07:49:12;;;;;;;1.65;0.80;;;;;;;7.20;61.95;100774.28;5019597;28;20468;-77
2022/12/03 07:51:52;;;;;;;0.88;0.65;;;;;;;7.15;61.55;100765.50;5030149;28;20045;-76
2022/12/03 07:54:20;;;;;;;3.30;1.20;;;;;;;7.15;61.91;100760.34;5031697;28;20059;-76
2022/12/03 07:56:49;;;;;;;1.65;0.82;;;;;;;7.16;61.97;100769.81;5016949;28;20088;-75
2022/12/03 07:59:18;;;;;;;1.75;0.90;;;;;;;7.13;61.76;100757.69;5028275;28;20067;-76
2022/12/03 08:01:47;;;;;;;3.28;1.13;;;;;;;7.11;62.34;100755.88;5028015;28;20487;-75
2022/12/03 08:04:19;;;;;;;1.20;0.80;;;;;;;7.09;62.88;100762.66;5019438;28;20053;-77
2022/12/03 08:06:48;;;;;;;2.55;1.17;;;;;;;7.06;61.79;100754.81;5023701;28;20067;-76
2022/12/03 08:09:17;;;;;;;3.47;1.13;;;;;;;7.05;62.21;100758.16;5022293;28;20518;-77
2022/12/03 08:11:48;;;;;;;1.73;0.70;;;;;;;7.02;61.82;100761.50;5025219;28;20056;-80
2022/12/03 08:14:18;;;;;;;3.63;1.23;;;;;;;6.99;62.89;100757.94;5022150;28;20045;-76
2022/12/03 08:16:48;;;;;;;2.70;1.13;;;;;;;6.96;62.68;100760.34;5022314;28;20050;-77
2022/12/03 08:19:19;;;;;;;1.58;0.93;;;;;;;6.93;62.51;100769.69;5024839;28;20053;-77
2022/12/03 08:21:48;;;;;;;2.70;1.25;;;;;;;6.91;62.97;100760.13;5026041;28;20046;-77
2022/12/03 08:24:18;;;;;;;1.60;0.80;;;;;;;6.88;62.41;100755.75;5027320;28;20128;-76
2022/12/03 08:26:49;;;;;;;2.15;0.77;;;;;;;6.87;62.25;100754.00;5020575;28;20045;-77
2022/12/03 08:29:20;;;;;;;1.33;0.80;;;;;;;6.83;62.24;100748.66;5029057;28;20072;-76
2022/12/03 08:31:53;;;;;;;1.48;0.80;;;;;;;6.79;62.08;100745.03;5026738;28;20940;-77
2022/12/03 08:34:25;;;;;;;1.13;0.70;;;;;;;6.76;62.34;100755.22;5028294;28;20053;-76
2022/12/03 08:36:59;;;;;;;2.90;1.00;;;;;;;6.71;62.47;100756.66;5014770;28;20060;-77
2022/12/03 08:39:33;;;;;;;1.83;0.70;;;;;;;6.71;60.69;100754.09;5028430;28;20056;-77
2022/12/03 08:45:20;;;;;;;1.05;0.65;;;;;;;6.67;61.44;100758.25;5017184;28;20430;-76
2022/12/03 08:47:49;;;;;;;1.30;0.70;;;;;;;6.64;61.54;100755.53;5024636;28;20048;-77
2022/12/03 08:50:30;;;;;;;1.70;0.82;;;;;;;6.66;61.40;100755.59;5028006;28;20041;-77
2022/12/03 08:53:12;;;;;;;1.55;0.70;;;;;;;6.65;60.56;100757.28;5026355;28;20061;-77
2022/12/03 08:55:46;;;;;;;1.35;0.50;;;;;;;6.66;60.22;100753.03;5023203;28;20053;-76
2022/12/03 08:58:22;;;;;;;2.22;0.70;;;;;;;6.68;61.11;100753.97;5023604;28;20055;-75
2022/12/03 09:00:56;;;;;;;3.22;1.00;;;;;;;6.53;61.47;100725.00;5023570;28;20042;-75
2022/12/03 09:03:24;;;;;;;7.28;0.82;;;;;;;6.64;61.37;100749.50;5025907;28;20055;-75
2022/12/03 09:05:55;;;;;;;0.70;0.43;;;;;;;6.62;61.36;100748.53;5024657;28;20381;-76
2022/12/03 09:08:23;;;;;;;1.75;0.95;;;;;;;6.60;60.85;100747.63;5027631;28;20053;-76
2022/12/03 09:10:52;;;;;;;2.30;0.80;;;;;;;6.57;61.81;100747.47;5028714;28;20053;-77
2022/12/03 09:13:21;;;;;;;1.05;0.68;;;;;;;6.56;62.18;100753.44;5023723;28;20045;-76
2022/12/03 09:15:49;;;;;;;1.58;0.70;;;;;;;6.53;63.31;100748.13;5021067;28;20049;-77
2022/12/03 09:18:25;;;;;;;1.63;0.80;;;;;;;6.50;62.28;100757.47;5022979;28;20052;-76
2022/12/03 09:20:55;;;;;;;1.48;0.57;;;;;;;6.49;61.45;100750.56;5019875;28;20045;-76
2022/12/03 09:23:24;;;;;;;2.72;0.52;;;;;;;6.46;61.40;100754.72;5023261;28;20053;-78
2022/12/03 09:25:53;;;;;;;2.72;0.90;;;;;;;6.41;61.32;100761.31;5026830;28;20191;-76
2022/12/03 09:28:22;;;;;;;1.90;0.82;;;;;;;6.36;61.48;100753.38;5025225;28;20050;-77
2022/12/03 09:30:50;;;;;;;2.97;1.38;;;;;;;6.35;61.60;100761.03;5030040;28;20864;-76
2022/12/03 09:33:26;;;;;;;4.03;0.70;;;;;;;6.34;62.14;100770.41;5022941;28;20056;-76
2022/12/03 09:35:56;;;;;;;2.92;1.20;;;;;;;6.35;63.18;100754.19;5017148;28;20061;-75
2022/12/03 09:38:25;;;;;;;2.17;0.80;;;;;;;6.37;63.32;100755.16;5025969;28;20045;-76
2022/12/03 09:40:54;;;;;;;0.57;0.50;;;;;;;6.39;61.36;100757.78;5022191;28;20073;-75
2022/12/03 09:43:23;;;;;;;1.10;0.68;;;;;;;6.38;60.59;100756.91;5031036;28;20050;-76
2022/12/03 09:45:52;;;;;;;2.03;0.63;;;;;;;6.35;60.58;100751.63;5032189;28;20067;-76
2022/12/03 09:48:21;;;;;;;0.93;0.65;;;;;;;6.36;61.00;100750.81;5032563;28;20561;-76
2022/12/03 09:50:50;;;;;;;1.33;0.70;;;;;;;6.36;61.46;100748.25;5031344;28;20038;-76
2022/12/03 09:53:24;;;;;;;2.72;0.40;;;;;;;6.32;60.62;100751.47;5032032;28;20059;-76
2022/12/03 09:55:53;;;;;;;2.00;0.90;;;;;;;6.32;60.45;100751.47;5014294;28;20287;-76
2022/12/03 09:58:22;;;;;;;1.15;0.50;;;;;;;6.33;61.20;100747.22;5024392;28;20056;-76
2022/12/03 10:00:52;;;;;;;2.10;0.90;;;;;;;6.33;59.97;100745.53;5027785;28;20041;-78
2022/12/03 10:03:24;;;;;;;0.73;0.50;;;;;;;6.27;60.04;100755.53;5026378;28;20053;-79
2022/12/03 10:05:54;;;;;;;1.40;0.70;;;;;;;6.24;60.12;100750.25;5027708;28;20042;-77
2022/12/03 10:08:26;;;;;;;2.08;0.77;;;;;;;6.23;60.42;100738.19;5031162;28;20049;-76
2022/12/03 10:10:57;;;;;;;3.00;0.47;;;;;;;6.23;60.19;100744.25;5026790;28;20045;-76
2022/12/03 10:13:29;;;;;;;0.88;0.55;;;;;;;6.23;60.56;100754.50;5028809;28;20116;-78
2022/12/03 10:16:00;;;;;;;1.55;0.70;;;;;;;6.23;60.07;100757.09;5026536;28;20041;-77
2022/12/03 10:18:31;;;;;;;1.42;0.65;;;;;;;6.24;60.40;100750.25;5026287;28;20057;-76
2022/12/03 10:21:00;;;;;;;0.90;0.70;;;;;;;6.25;60.09;100754.56;5017738;28;20054;-79
2022/12/03 10:23:31;;;;;;;1.58;0.60;;;;;;;6.25;60.63;100747.75;5030712;28;20046;-77
2022/12/03 10:26:02;;;;;;;0.65;0.30;;;;;;;6.25;59.73;100758.03;5025427;28;20053;-76
2022/12/03 10:28:34;;;;;;;0.73;0.47;;;;;;;6.26;60.10;100762.34;5029020;28;20096;-79
2022/12/03 10:31:05;;;;;;;1.55;0.63;;;;;;;6.25;60.14;100765.75;5027530;28;20054;-80
2022/12/03 10:33:36;;;;;;;1.50;0.60;;;;;;;6.12;59.20;100752.25;5028241;28;20045;-78
2022/12/03 10:36:26;;;;;;;1.55;0.50;;;;;;;6.24;58.56;100773.38;5029155;28;20052;-79
2022/12/03 10:39:12;;;;;;;3.35;0.60;;;;;;;6.27;60.33;100778.66;5028160;28;20049;-78
2022/12/03 10:41:42;;;;;;;1.98;0.47;;;;;;;6.27;60.64;100781.22;5030372;28;20129;-77
2022/12/03 10:44:18;;;;;;;0.65;0.43;;;;;;;6.22;59.03;100775.00;5030575;28;20052;-78
2022/12/03 10:47:05;;;;;;;0.90;0.65;;;;;;;6.22;59.63;100775.84;5023125;28;20041;-78
2022/12/03 10:49:34;;;;;;;0.60;0.30;;;;;;;6.21;59.73;100775.81;5029089;28;20061;-76
2022/12/03 10:52:02;;;;;;;1.08;0.68;;;;;;;6.18;60.44;100783.34;5030902;28;20096;-76
2022/12/03 10:54:35;;;;;;;1.48;0.52;;;;;;;6.03;59.56;100763.84;5025755;28;20112;-79
2022/12/03 10:57:04;;;;;;;1.23;0.50;;;;;;;6.11;60.10;100771.03;5031967;28;20109;-80
2022/12/03 10:59:35;;;;;;;2.55;0.65;;;;;;;6.12;59.39;100770.25;5028280;28;20132;-80
2022/12/03 11:02:08;;;;;;;1.80;0.68;;;;;;;6.11;59.58;100765.88;5031447;28;20121;-78
2022/12/03 11:04:37;;;;;;;2.38;0.63;;;;;;;6.00;59.56;100773.97;5022631;28;20518;-80
2022/12/03 11:07:15;;;;;;;1.05;0.68;;;;;;;5.91;59.53;100770.03;5024778;28;20050;-79
2022/12/03 11:09:47;;;;;;;2.00;0.70;;;;;;;5.95;60.42;100775.41;5031393;28;20049;-75
2022/12/03 11:12:19;;;;;;;;;;;;;;;5.97;58.85;100781.50;5032399;28;20075;-79
2022/12/03 11:15:08;;;;;;;2.20;0.80;;;;;;;5.96;59.48;100782.34;5020109;28;19928;-78
2022/12/03 11:17:47;;;;;;;0.82;0.50;;;;;;;5.95;60.12;100769.41;5018128;28;20046;-76
2022/12/03 11:20:48;;;;;;;1.50;0.65;;;;;;;5.93;60.62;100766.72;5019239;28;20376;-77
2022/12/03 11:23:54;;;;;;;0.95;0.55;;;;;;;5.92;60.75;100771.81;5020343;28;20266;-76
2022/12/03 11:26:56;;;;;;;1.23;0.55;;;;;;;5.96;61.56;100764.34;5021773;28;20136;-75
2022/12/03 11:29:51;;;;;;;1.35;0.40;;;;;;;5.98;60.70;100775.59;5026436;28;20054;-76
2022/12/03 11:33:00;;;;;;;1.42;0.50;;;;;;;5.97;60.56;100771.25;5028691;28;20538;-76
2022/12/03 11:35:35;;;;;;;1.23;0.63;;;;;;;5.98;60.76;100780.72;5020822;28;20427;-77
2022/12/03 11:38:39;;;;;;;0.55;0.55;;;;;;;5.99;60.04;100774.75;5025367;28;20064;-76
2022/12/03 11:41:09;;;;;;;1.13;0.57;;;;;;;6.01;60.21;100788.56;5015670;28;20133;-75
2022/12/03 11:44:04;;;;;;;0.70;0.60;;;;;;;6.02;59.68;100777.47;5029963;28;20048;-75
2022/12/03 11:46:42;;;;;;;0.75;0.50;;;;;;;5.99;60.34;100782.47;5020381;28;20506;-75
2022/12/03 11:49:29;;;;;;;0.88;0.55;;;;;;;5.98;60.26;100784.94;5020147;28;20067;-74
2022/12/03 11:51:58;;;;;;;1.27;0.60;;;;;;;5.97;59.46;100784.09;5029117;28;20495;-75
2022/12/03 11:54:27;;;;;;;1.08;0.60;;;;;;;5.93;58.19;100786.38;5034832;28;20144;-76
2022/12/03 11:56:56;;;;;;;0.40;0.30;;;;;;;5.92;57.94;100784.66;5027680;28;20045;-76
2022/12/03 11:59:26;;;;;;;0.30;0.20;;;;;;;5.92;58.60;100785.53;5027358;28;20053;-76
2022/12/03 12:01:56;;;;;;;0.70;0.60;;;;;;;5.91;57.87;100788.91;5019453;28;20076;-76
2022/12/03 12:04:34;;;;;;;0.70;0.40;;;;;;;5.88;62.33;100788.75;5019599;28;20049;-75
2022/12/03 12:07:03;;;;;;;1.02;0.30;;;;;;;5.86;61.64;100782.63;5033776;28;20050;-75
2022/12/03 12:09:52;;;;;;;0.93;0.50;;;;;;;5.82;61.67;100793.59;5017722;28;20046;-75
2022/12/03 12:12:31;;;;;;;1.40;0.82;;;;;;;5.82;57.68;100788.47;5022232;28;20050;-75
2022/12/03 12:15:00;;;;;;;1.02;0.40;;;;;;;5.86;57.31;100791.25;5028414;28;20049;-76